Bretagne — FNBR — position and weather

sailwx.info

Track history (hours):
 
Tides and Currents Weather Stations Pressure Air Temp Water Temp Dewpoint Dewpoint Depression Visibility Wind Speed Wind Dir Waves Ship Positions

Bretagne

Operator: Brittany Ferries

Last reported at 2017-Mar-30 05:20 UTC. Time now 2017-Mar-30 14:36 UTC.
Position N 48°45' W 002°10'.

Length 151 m; beam 27 m.

Type: Ship. MMSI: 227286000.

Date/timePositionNaut miles runAvg speedWind from/ knotsBaromVisibWave heightAir tempDewpointWater temp
2017-Mar-30 05:20N 48°45' W 002°10'3813.5
2017-Mar-30 02:31N 49°23' W 002°20'3417.2
2017-Mar-30 00:33N 49°52' W 001°57'1616.0
2017-Mar-29 23:33N 50°05' W 001°41'1514.9
2017-Mar-29 22:33N 50°18' W 001°28'1414.1
2017-Mar-29 21:33N 50°29' W 001°15'1313.1
2017-Mar-29 20:33N 50°40' W 001°04'8 8.5
2017-Mar-29 19:34N 50°48' W 001°07'1 0.9
2017-Mar-29 18:30N 50°49' W 001°06'0 0.0
2017-Mar-29 17:33N 50°49' W 001°06'0 0.0
2017-Mar-29 16:33N 50°49' W 001°06'0 0.0
2017-Mar-29 15:31N 50°49' W 001°06'0 0.0
2017-Mar-29 14:33N 50°49' W 001°06'0 0.0
2017-Mar-29 13:33N 50°49' W 001°06'0 0.0
2017-Mar-29 12:33N 50°49' W 001°06'0 0.0
2017-Mar-29 11:33N 50°49' W 001°06'0 0.0
2017-Mar-29 10:33N 50°49' W 001°06'0 0.0
2017-Mar-29 09:33N 50°49' W 001°06'0 0.0
2017-Mar-29 08:33N 50°49' W 001°06'0 0.0
2017-Mar-29 07:34N 50°49' W 001°06'0 0.0
2017-Mar-29 06:33N 50°49' W 001°06'9 8.6
2017-Mar-29 05:34N 50°41' W 000°58'1815.7
2017-Mar-29 04:26N 50°27' W 001°14'1314.7
2017-Mar-29 03:33N 50°17' W 001°26'1413.7
2017-Mar-29 02:33N 50°06' W 001°39'1313.1
2017-Mar-29 01:34N 49°55' W 001°51'10 9.6
2017-Mar-29 00:33N 49°47' W 001°60'16 0.7
2017-Mar-28 01:31N 49°33' W 002°10'1514.9
2017-Mar-28 00:32N 49°47' W 002°02'1414.0
2017-Mar-27 23:33N 49°58' W 001°49'1716.6
2017-Mar-27 22:33N 50°10' W 001°32'1515.3
2017-Mar-27 21:33N 50°23' W 001°20'1514.5
2017-Mar-27 20:34N 50°36' W 001°08'1211.9
2017-Mar-27 19:33N 50°48' W 001°07'1 1.3
2017-Mar-27 18:33N 50°49' W 001°06'0 0.0
2017-Mar-27 17:32N 50°49' W 001°06'0 0.0
2017-Mar-27 16:32N 50°49' W 001°06'0 0.0
2017-Mar-27 15:32N 50°49' W 001°06'0 0.0
2017-Mar-27 14:32N 50°49' W 001°06'0 0.0
2017-Mar-27 13:32N 50°49' W 001°06'0 0.0
2017-Mar-27 12:32N 50°49' W 001°06'0 0.0
2017-Mar-27 11:32N 50°49' W 001°06'0 0.0
2017-Mar-27 10:32N 50°49' W 001°06'0 0.0
2017-Mar-27 09:32N 50°49' W 001°06'0 0.0
2017-Mar-27 08:32N 50°49' W 001°06'0 0.0
2017-Mar-27 07:32N 50°49' W 001°06'0 0.0
2017-Mar-27 06:33N 50°49' W 001°06'9 9.4
2017-Mar-27 05:34N 50°40' W 000°59'1817.7
2017-Mar-27 04:34N 50°26' W 001°16'1615.7
2017-Mar-27 03:34N 50°14' W 001°31'1414.4
2017-Mar-27 02:33N 50°02' W 001°43'1313.3
2017-Mar-27 01:34N 49°51' W 001°55'19 8.3
2017-Mar-26 23:15N 49°34' W 002°09'1 0.0
2017-Mar-26 01:33N 49°33' W 002°10'1717.6
2017-Mar-26 00:34N 49°49' W 002°01'1818.1
2017-Mar-25 23:33N 50°04' W 001°43'1717.0
2017-Mar-25 22:33N 50°18' W 001°28'1716.6
2017-Mar-25 21:33N 50°31' W 001°13'1414.1
2017-Mar-25 20:34N 50°44' W 001°05'4 4.4
2017-Mar-25 19:33N 50°49' W 001°06'0 0.0
2017-Mar-25 18:34N 50°49' W 001°06'2 2.4
2017-Mar-25 17:34N 50°46' W 001°06'1514.7
2017-Mar-25 16:34N 50°32' W 001°11'1717.0
2017-Mar-25 15:33N 50°18' W 001°27'1818.5
2017-Mar-25 14:33N 50°03' W 001°43'1817.6
2017-Mar-25 13:34N 49°48' W 001°58'1916.0
2017-Mar-25 12:23N 49°31' W 002°11'1416.8
2017-Mar-25 11:33N 49°19' W 002°20'2518.2
2017-Mar-25 10:10N 48°54' W 002°20'1618.8
2017-Mar-25 09:18N 48°40' W 002°05'3 3.4
2017-Mar-25 08:23N 48°38' W 002°02'51 8.6
2017-Mar-25 02:27N 49°29' W 002°13'2613.7
2017-Mar-25 00:33N 49°52' W 001°55'1717.5
2017-Mar-24 23:34N 50°06' W 001°39'1817.9
2017-Mar-24 22:32N 50°21' W 001°23'1717.8
2017-Mar-24 21:33N 50°36' W 001°09'1211.9
2017-Mar-24 20:33N 50°48' W 001°07'1 1.0
2017-Mar-24 19:32N 50°49' W 001°06'0 0.0
2017-Mar-24 18:32N 50°49' W 001°06'0 0.0
2017-Mar-24 17:32N 50°49' W 001°06'0 0.0
2017-Mar-24 16:32N 50°49' W 001°06'0 0.0
2017-Mar-24 15:32N 50°49' W 001°06'0 0.0
2017-Mar-24 14:32N 50°49' W 001°06'0 0.0
2017-Mar-24 13:32N 50°49' W 001°06'0 0.0
2017-Mar-24 12:32N 50°49' W 001°06'0 0.0
2017-Mar-24 11:32N 50°49' W 001°06'0 0.0
2017-Mar-24 10:32N 50°49' W 001°06'0 0.0
2017-Mar-24 09:32N 50°49' W 001°06'0 0.0
2017-Mar-24 08:32N 50°49' W 001°06'0 0.0
2017-Mar-24 07:34N 50°49' W 001°06'1010.2
2017-Mar-24 06:33N 50°38' W 001°06'1818.2
2017-Mar-24 05:33N 50°22' W 001°19'1312.9
2017-Mar-24 04:33N 50°12' W 001°31'1312.9
2017-Mar-24 03:33N 50°03' W 001°45'1111.4
2017-Mar-24 02:33N 49°53' W 001°54'1510.8
2017-Mar-24 01:08N 49°40' W 002°06'610.8
2017-Mar-24 00:32N 49°33' W 002°09'1 0.1
2017-Mar-23 02:24N 49°33' W 002°11'1513.7
2017-Mar-23 01:16N 49°47' W 002°01'1115.2
2017-Mar-23 00:33N 49°56' W 001°52'1616.1
2017-Mar-22 23:33N 50°09' W 001°38'1616.4
2017-Mar-22 22:33N 50°23' W 001°24'1716.8
2017-Mar-22 21:34N 50°36' W 001°08'1212.0
2017-Mar-22 20:34N 50°48' W 001°07'1 0.8
2017-Mar-22 19:32N 50°49' W 001°06'0 0.0
2017-Mar-22 18:32N 50°49' W 001°06'0 0.0
2017-Mar-22 17:32N 50°49' W 001°06'0 0.0
2017-Mar-22 16:32N 50°49' W 001°06'0 0.0
2017-Mar-22 15:32N 50°49' W 001°06'0 0.0
2017-Mar-22 14:32N 50°49' W 001°06'0 0.0
2017-Mar-22 13:33N 50°49' W 001°06'0 0.0
2017-Mar-22 12:33N 50°49' W 001°06'0 0.0
2017-Mar-22 11:29N 50°49' W 001°06'0 0.0
2017-Mar-22 10:29N 50°49' W 001°06'0 0.0
2017-Mar-22 09:31N 50°49' W 001°06'0 0.0
2017-Mar-22 08:31N 50°49' W 001°06'1 1.3
2017-Mar-22 07:33N 50°48' W 001°07'10 9.6
2017-Mar-22 06:33N 50°38' W 001°06'1814.2
2017-Mar-22 05:17N 50°23' W 001°22'811.1
2017-Mar-22 04:33N 50°16' W 001°29'1211.8
2017-Mar-22 03:33N 50°06' W 001°39'1212.0
2017-Mar-22 02:33N 49°56' W 001°49'1212.2
2017-Mar-22 01:33N 49°46' W 002°00'17 0.8
2017-Mar-21 03:05N 49°31' W 002°12'2214.3
2017-Mar-21 01:34N 49°51' W 001°57'1413.7
2017-Mar-21 00:33N 50°02' W 001°44'2914.3
2017-Mar-20 22:32N 50°26' W 001°19'1514.9
2017-Mar-20 21:33N 50°38' W 001°06'1010.4
2017-Mar-20 20:34N 50°48' W 001°07'1 0.9
2017-Mar-20 19:33N 50°49' W 001°06'0 0.0
2017-Mar-20 18:33N 50°49' W 001°06'0 0.0
2017-Mar-20 17:33N 50°49' W 001°06'0 0.0
2017-Mar-20 16:33N 50°49' W 001°06'0 0.0
2017-Mar-20 15:33N 50°49' W 001°06'0 0.0
2017-Mar-20 14:33N 50°49' W 001°06'0 0.0
2017-Mar-20 13:33N 50°49' W 001°06'0 0.0
2017-Mar-20 12:33N 50°49' W 001°06'0 0.0
2017-Mar-20 11:33N 50°49' W 001°06'0 0.0
2017-Mar-20 10:33N 50°49' W 001°06'0 0.0
2017-Mar-20 09:33N 50°49' W 001°06'0 0.0
2017-Mar-20 08:34N 50°49' W 001°06'0 0.1
2017-Mar-20 07:34N 50°49' W 001°06'10 9.9
2017-Mar-20 06:33N 50°39' W 001°05'1717.2
2017-Mar-20 05:33N 50°24' W 001°21'  
Track history (hours):
 
Tides and Currents Weather Stations Pressure Air Temp Water Temp Dewpoint Dewpoint Depression Visibility Wind Speed Wind Dir Waves Ship Positions

Bretagne

Operator: Brittany Ferries

Last reported at 2017-Mar-30 05:20 UTC. Time now 2017-Mar-30 14:36 UTC.
Position N 48°45' W 002°10'.

Length 151 m; beam 27 m.

Type: Ship. MMSI: 227286000.

Date/timePositionNaut miles runAvg speedWind from/ knotsBaromVisibWave heightAir tempDewpointWater temp
2017-Mar-30 05:20N 48°45' W 002°10'3813.5
2017-Mar-30 02:31N 49°23' W 002°20'3417.2
2017-Mar-30 00:33N 49°52' W 001°57'1616.0
2017-Mar-29 23:33N 50°05' W 001°41'1514.9
2017-Mar-29 22:33N 50°18' W 001°28'1414.1
2017-Mar-29 21:33N 50°29' W 001°15'1313.1
2017-Mar-29 20:33N 50°40' W 001°04'8 8.5
2017-Mar-29 19:34N 50°48' W 001°07'1 0.9
2017-Mar-29 18:30N 50°49' W 001°06'0 0.0
2017-Mar-29 17:33N 50°49' W 001°06'0 0.0
2017-Mar-29 16:33N 50°49' W 001°06'0 0.0
2017-Mar-29 15:31N 50°49' W 001°06'0 0.0
2017-Mar-29 14:33N 50°49' W 001°06'0 0.0
2017-Mar-29 13:33N 50°49' W 001°06'0 0.0
2017-Mar-29 12:33N 50°49' W 001°06'0 0.0
2017-Mar-29 11:33N 50°49' W 001°06'0 0.0
2017-Mar-29 10:33N 50°49' W 001°06'0 0.0
2017-Mar-29 09:33N 50°49' W 001°06'0 0.0
2017-Mar-29 08:33N 50°49' W 001°06'0 0.0
2017-Mar-29 07:34N 50°49' W 001°06'0 0.0
2017-Mar-29 06:33N 50°49' W 001°06'9 8.6
2017-Mar-29 05:34N 50°41' W 000°58'1815.7
2017-Mar-29 04:26N 50°27' W 001°14'1314.7
2017-Mar-29 03:33N 50°17' W 001°26'1413.7
2017-Mar-29 02:33N 50°06' W 001°39'1313.1
2017-Mar-29 01:34N 49°55' W 001°51'10 9.6
2017-Mar-29 00:33N 49°47' W 001°60'16 0.7
2017-Mar-28 01:31N 49°33' W 002°10'1514.9
2017-Mar-28 00:32N 49°47' W 002°02'1414.0
2017-Mar-27 23:33N 49°58' W 001°49'1716.6
2017-Mar-27 22:33N 50°10' W 001°32'1515.3
2017-Mar-27 21:33N 50°23' W 001°20'1514.5
2017-Mar-27 20:34N 50°36' W 001°08'1211.9
2017-Mar-27 19:33N 50°48' W 001°07'1 1.3
2017-Mar-27 18:33N 50°49' W 001°06'0 0.0
2017-Mar-27 17:32N 50°49' W 001°06'0 0.0
2017-Mar-27 16:32N 50°49' W 001°06'0 0.0
2017-Mar-27 15:32N 50°49' W 001°06'0 0.0
2017-Mar-27 14:32N 50°49' W 001°06'0 0.0
2017-Mar-27 13:32N 50°49' W 001°06'0 0.0
2017-Mar-27 12:32N 50°49' W 001°06'0 0.0
2017-Mar-27 11:32N 50°49' W 001°06'0 0.0
2017-Mar-27 10:32N 50°49' W 001°06'0 0.0
2017-Mar-27 09:32N 50°49' W 001°06'0 0.0
2017-Mar-27 08:32N 50°49' W 001°06'0 0.0
2017-Mar-27 07:32N 50°49' W 001°06'0 0.0
2017-Mar-27 06:33N 50°49' W 001°06'9 9.4
2017-Mar-27 05:34N 50°40' W 000°59'1817.7
2017-Mar-27 04:34N 50°26' W 001°16'1615.7
2017-Mar-27 03:34N 50°14' W 001°31'1414.4
2017-Mar-27 02:33N 50°02' W 001°43'1313.3
2017-Mar-27 01:34N 49°51' W 001°55'19 8.3
2017-Mar-26 23:15N 49°34' W 002°09'1 0.0
2017-Mar-26 01:33N 49°33' W 002°10'1717.6
2017-Mar-26 00:34N 49°49' W 002°01'1818.1
2017-Mar-25 23:33N 50°04' W 001°43'1717.0
2017-Mar-25 22:33N 50°18' W 001°28'1716.6
2017-Mar-25 21:33N 50°31' W 001°13'1414.1
2017-Mar-25 20:34N 50°44' W 001°05'4 4.4
2017-Mar-25 19:33N 50°49' W 001°06'0 0.0
2017-Mar-25 18:34N 50°49' W 001°06'2 2.4
2017-Mar-25 17:34N 50°46' W 001°06'1514.7
2017-Mar-25 16:34N 50°32' W 001°11'1717.0
2017-Mar-25 15:33N 50°18' W 001°27'1818.5
2017-Mar-25 14:33N 50°03' W 001°43'1817.6
2017-Mar-25 13:34N 49°48' W 001°58'1916.0
2017-Mar-25 12:23N 49°31' W 002°11'1416.8
2017-Mar-25 11:33N 49°19' W 002°20'2518.2
2017-Mar-25 10:10N 48°54' W 002°20'1618.8
2017-Mar-25 09:18N 48°40' W 002°05'3 3.4
2017-Mar-25 08:23N 48°38' W 002°02'51 8.6
2017-Mar-25 02:27N 49°29' W 002°13'2613.7
2017-Mar-25 00:33N 49°52' W 001°55'1717.5
2017-Mar-24 23:34N 50°06' W 001°39'1817.9
2017-Mar-24 22:32N 50°21' W 001°23'1717.8
2017-Mar-24 21:33N 50°36' W 001°09'1211.9
2017-Mar-24 20:33N 50°48' W 001°07'1 1.0
2017-Mar-24 19:32N 50°49' W 001°06'0 0.0
2017-Mar-24 18:32N 50°49' W 001°06'0 0.0
2017-Mar-24 17:32N 50°49' W 001°06'0 0.0
2017-Mar-24 16:32N 50°49' W 001°06'0 0.0
2017-Mar-24 15:32N 50°49' W 001°06'0 0.0
2017-Mar-24 14:32N 50°49' W 001°06'0 0.0
2017-Mar-24 13:32N 50°49' W 001°06'0 0.0
2017-Mar-24 12:32N 50°49' W 001°06'0 0.0
2017-Mar-24 11:32N 50°49' W 001°06'0 0.0
2017-Mar-24 10:32N 50°49' W 001°06'0 0.0
2017-Mar-24 09:32N 50°49' W 001°06'0 0.0
2017-Mar-24 08:32N 50°49' W 001°06'0 0.0
2017-Mar-24 07:34N 50°49' W 001°06'1010.2
2017-Mar-24 06:33N 50°38' W 001°06'1818.2
2017-Mar-24 05:33N 50°22' W 001°19'1312.9
2017-Mar-24 04:33N 50°12' W 001°31'1312.9
2017-Mar-24 03:33N 50°03' W 001°45'1111.4
2017-Mar-24 02:33N 49°53' W 001°54'1510.8
2017-Mar-24 01:08N 49°40' W 002°06'610.8
2017-Mar-24 00:32N 49°33' W 002°09'1 0.1
2017-Mar-23 02:24N 49°33' W 002°11'1513.7
2017-Mar-23 01:16N 49°47' W 002°01'1115.2
2017-Mar-23 00:33N 49°56' W 001°52'1616.1
2017-Mar-22 23:33N 50°09' W 001°38'1616.4
2017-Mar-22 22:33N 50°23' W 001°24'1716.8
2017-Mar-22 21:34N 50°36' W 001°08'1212.0
2017-Mar-22 20:34N 50°48' W 001°07'1 0.8
2017-Mar-22 19:32N 50°49' W 001°06'0 0.0
2017-Mar-22 18:32N 50°49' W 001°06'0 0.0
2017-Mar-22 17:32N 50°49' W 001°06'0 0.0
2017-Mar-22 16:32N 50°49' W 001°06'0 0.0
2017-Mar-22 15:32N 50°49' W 001°06'0 0.0
2017-Mar-22 14:32N 50°49' W 001°06'0 0.0
2017-Mar-22 13:33N 50°49' W 001°06'0 0.0
2017-Mar-22 12:33N 50°49' W 001°06'0 0.0
2017-Mar-22 11:29N 50°49' W 001°06'0 0.0
2017-Mar-22 10:29N 50°49' W 001°06'0 0.0
2017-Mar-22 09:31N 50°49' W 001°06'0 0.0
2017-Mar-22 08:31N 50°49' W 001°06'1 1.3
2017-Mar-22 07:33N 50°48' W 001°07'10 9.6
2017-Mar-22 06:33N 50°38' W 001°06'1814.2
2017-Mar-22 05:17N 50°23' W 001°22'811.1
2017-Mar-22 04:33N 50°16' W 001°29'1211.8
2017-Mar-22 03:33N 50°06' W 001°39'1212.0
2017-Mar-22 02:33N 49°56' W 001°49'1212.2
2017-Mar-22 01:33N 49°46' W 002°00'17 0.8
2017-Mar-21 03:05N 49°31' W 002°12'2214.3
2017-Mar-21 01:34N 49°51' W 001°57'1413.7
2017-Mar-21 00:33N 50°02' W 001°44'2914.3
2017-Mar-20 22:32N 50°26' W 001°19'1514.9
2017-Mar-20 21:33N 50°38' W 001°06'1010.4
2017-Mar-20 20:34N 50°48' W 001°07'1 0.9
2017-Mar-20 19:33N 50°49' W 001°06'0 0.0
2017-Mar-20 18:33N 50°49' W 001°06'0 0.0
2017-Mar-20 17:33N 50°49' W 001°06'0 0.0
2017-Mar-20 16:33N 50°49' W 001°06'0 0.0
2017-Mar-20 15:33N 50°49' W 001°06'0 0.0
2017-Mar-20 14:33N 50°49' W 001°06'0 0.0
2017-Mar-20 13:33N 50°49' W 001°06'0 0.0
2017-Mar-20 12:33N 50°49' W 001°06'0 0.0
2017-Mar-20 11:33N 50°49' W 001°06'0 0.0
2017-Mar-20 10:33N 50°49' W 001°06'0 0.0
2017-Mar-20 09:33N 50°49' W 001°06'0 0.0
2017-Mar-20 08:34N 50°49' W 001°06'0 0.1
2017-Mar-20 07:34N 50°49' W 001°06'10 9.9
2017-Mar-20 06:33N 50°39' W 001°05'1717.2
2017-Mar-20 05:33N 50°24' W 001°21'  

Dump ship's entire track history